createdAt,value
2018-09-25T00:00:48.676Z,102793.00
2018-09-25T00:15:13.529Z,102800.00
2018-09-25T00:17:48.021Z,102809.00
2018-09-25T00:20:22.462Z,102799.00
2018-09-25T00:22:56.850Z,102804.00
2018-09-25T00:25:31.535Z,102803.00
2018-09-25T00:28:06.315Z,102797.00
2018-09-25T00:30:40.891Z,102795.00
2018-09-25T00:33:15.836Z,102797.00
2018-09-25T00:35:50.390Z,102801.00
2018-09-25T00:38:24.807Z,102806.00
2018-09-25T00:40:59.260Z,102817.00
2018-09-25T00:43:33.999Z,102808.00
2018-09-25T00:46:08.441Z,102814.00
2018-09-25T00:48:42.936Z,102811.00
2018-09-25T00:51:17.660Z,102819.00
2018-09-25T00:53:52.107Z,102800.00
2018-09-25T00:56:26.651Z,102817.00
2018-09-25T00:59:04.780Z,102828.00
2018-09-25T01:01:39.256Z,102823.00
2018-09-25T01:04:13.834Z,102827.00
2018-09-25T01:06:48.537Z,102828.00
2018-09-25T01:09:22.955Z,102833.00
2018-09-25T01:11:57.432Z,102827.00
2018-09-25T01:14:32.294Z,102834.00
2018-09-25T01:17:06.711Z,102833.00
2018-09-25T01:19:41.274Z,102827.00
2018-09-25T01:22:15.756Z,102833.00
2018-09-25T01:24:50.360Z,102836.00
2018-09-25T01:27:24.844Z,102832.00
2018-09-25T01:29:59.249Z,102836.00
2018-09-25T01:32:34.364Z,102833.00
2018-09-25T01:35:08.863Z,102822.00
2018-09-25T01:37:43.298Z,102829.00
2018-09-25T01:40:17.903Z,102826.00
2018-09-25T01:42:52.588Z,102823.00
2018-09-25T01:45:26.979Z,102818.00
2018-09-25T01:48:01.409Z,102825.00
2018-09-25T01:50:35.850Z,102826.00
2018-09-25T01:53:10.387Z,102820.00
2018-09-25T01:55:44.778Z,102825.00
2018-09-25T01:58:19.112Z,102833.00
2018-09-25T02:00:53.656Z,102826.00
2018-09-25T02:03:28.211Z,102829.00
2018-09-25T02:06:02.833Z,102836.00
2018-09-25T02:08:37.252Z,102831.00
2018-09-25T02:11:11.819Z,102838.00
2018-09-25T02:13:46.295Z,102833.00
2018-09-25T02:16:20.755Z,102844.00
2018-09-25T02:18:55.243Z,102846.00
2018-09-25T02:21:29.884Z,102842.00
2018-09-25T02:24:04.371Z,102841.00
2018-09-25T02:26:38.921Z,102853.00
2018-09-25T02:29:13.555Z,102851.00
2018-09-25T02:31:48.099Z,102841.00
2018-09-25T02:34:22.581Z,102855.00
2018-09-25T02:36:58.725Z,102850.00
2018-09-25T02:39:33.322Z,102856.00
2018-09-25T02:42:08.672Z,102854.00
2018-09-25T02:44:43.134Z,102859.00
2018-09-25T02:47:17.494Z,102841.00
2018-09-25T02:49:52.072Z,102854.00
2018-09-25T02:52:26.564Z,102861.00
2018-09-25T02:55:01.138Z,102859.00
2018-09-25T02:57:35.545Z,102863.00
2018-09-25T03:00:09.998Z,102864.00
2018-09-25T03:02:44.583Z,102868.00
2018-09-25T03:05:19.250Z,102853.00
2018-09-25T03:07:54.007Z,102860.00
2018-09-25T03:10:28.660Z,102851.00
2018-09-25T03:13:03.007Z,102862.00
2018-09-25T03:15:37.513Z,102860.00
2018-09-25T03:18:12.011Z,102854.00
2018-09-25T03:20:46.607Z,102859.00
2018-09-25T03:23:21.267Z,102861.00
2018-09-25T03:25:55.617Z,102853.00
2018-09-25T03:28:30.058Z,102858.00
2018-09-25T03:31:04.406Z,102854.00
2018-09-25T03:33:38.887Z,102850.00
2018-09-25T03:36:13.310Z,102852.00
2018-09-25T03:38:47.800Z,102848.00
2018-09-25T03:41:22.408Z,102854.00
2018-09-25T03:43:56.967Z,102855.00
2018-09-25T03:46:31.499Z,102854.00
2018-09-25T03:49:07.230Z,102862.00
2018-09-25T03:51:42.168Z,102870.00
2018-09-25T03:54:16.860Z,102870.00
2018-09-25T03:56:51.402Z,102859.00
2018-09-25T03:59:25.850Z,102877.00
2018-09-25T04:02:00.409Z,102873.00
2018-09-25T04:04:34.841Z,102874.00
2018-09-25T04:07:09.412Z,102869.00
2018-09-25T04:09:43.806Z,102870.00
2018-09-25T04:12:18.967Z,102864.00
2018-09-25T04:14:53.467Z,102869.00
2018-09-25T04:17:27.975Z,102882.00
2018-09-25T04:20:02.640Z,102879.00
2018-09-25T04:22:37.030Z,102895.00
2018-09-25T04:25:11.570Z,102895.00
2018-09-25T04:27:46.000Z,102888.00
2018-09-25T04:30:20.615Z,102891.00
2018-09-25T04:32:55.106Z,102897.00
2018-09-25T04:35:29.587Z,102898.00
2018-09-25T04:38:04.004Z,102888.00
2018-09-25T04:40:38.825Z,102889.00
2018-09-25T04:43:13.267Z,102900.00
2018-09-25T04:45:47.803Z,102889.00
2018-09-25T04:48:22.362Z,102887.00
2018-09-25T04:50:56.691Z,102891.00
2018-09-25T04:53:31.087Z,102888.00
2018-09-25T04:56:05.560Z,102898.00
2018-09-25T04:58:40.159Z,102898.00
2018-09-25T05:01:16.308Z,102909.00
2018-09-25T05:03:50.838Z,102899.00
2018-09-25T05:06:25.247Z,102904.00
2018-09-25T05:08:59.655Z,102896.00
2018-09-25T05:11:34.280Z,102909.00
2018-09-25T05:14:08.888Z,102910.00
2018-09-25T05:16:43.414Z,102900.00
2018-09-25T05:19:18.296Z,102908.00
2018-09-25T05:21:53.061Z,102907.00
2018-09-25T05:24:27.638Z,102909.00
2018-09-25T05:27:02.103Z,102900.00
2018-09-25T05:29:36.705Z,102904.00
2018-09-25T05:32:12.880Z,102905.00
2018-09-25T05:34:48.906Z,102901.00
2018-09-25T05:37:23.751Z,102914.00
2018-09-25T05:39:58.448Z,102905.00
2018-09-25T05:42:33.289Z,102913.00
2018-09-25T05:45:07.871Z,102905.00
2018-09-25T05:47:42.359Z,102909.00
2018-09-25T05:50:16.822Z,102908.00
2018-09-25T05:52:51.365Z,102922.00
2018-09-25T05:55:25.918Z,102935.00
2018-09-25T05:58:00.235Z,102929.00
2018-09-25T06:00:34.724Z,102920.00
2018-09-25T06:03:09.171Z,102943.00
2018-09-25T06:05:43.641Z,102929.00
2018-09-25T06:08:18.185Z,102935.00
2018-09-25T06:10:52.690Z,102941.00
2018-09-25T06:13:27.416Z,102949.00
2018-09-25T06:16:01.923Z,102942.00
2018-09-25T06:18:36.539Z,102933.00
2018-09-25T06:21:11.216Z,102944.00
2018-09-25T06:23:45.555Z,102957.00
2018-09-25T06:26:20.131Z,102955.00
2018-09-25T06:28:55.041Z,102955.00
2018-09-25T06:31:29.500Z,102960.00
2018-09-25T06:34:04.041Z,102962.00
2018-09-25T06:36:39.360Z,102961.00
2018-09-25T06:39:14.899Z,102960.00
2018-09-25T06:41:49.503Z,102972.00
2018-09-25T06:44:30.886Z,102974.00
2018-09-25T06:47:05.443Z,102967.00
2018-09-25T06:49:39.965Z,102964.00
2018-09-25T06:52:14.479Z,102980.00
2018-09-25T06:54:49.126Z,102983.00
2018-09-25T06:57:23.524Z,102986.00
2018-09-25T06:59:57.963Z,102984.00
2018-09-25T07:02:32.607Z,102992.00
2018-09-25T07:05:07.116Z,102982.00
2018-09-25T07:07:41.567Z,102996.00
2018-09-25T07:10:16.112Z,102996.00
2018-09-25T07:12:50.870Z,102995.00
2018-09-25T07:15:25.284Z,103003.00
2018-09-25T07:17:59.852Z,102997.00
2018-09-25T07:20:34.446Z,103013.00
2018-09-25T07:23:08.919Z,103017.00
2018-09-25T07:25:43.398Z,103023.00
2018-09-25T07:28:17.974Z,103025.00
2018-09-25T07:30:52.554Z,103026.00
2018-09-25T07:33:26.973Z,103021.00
2018-09-25T07:36:01.593Z,103021.00
2018-09-25T07:38:36.125Z,103018.00
2018-09-25T07:41:10.716Z,103028.00
2018-09-25T07:43:45.191Z,103022.00
2018-09-25T07:46:20.083Z,103027.00
2018-09-25T07:48:54.563Z,103025.00
2018-09-25T07:51:29.228Z,103026.00
2018-09-25T07:54:03.751Z,103037.00
2018-09-25T07:56:38.530Z,103039.00
2018-09-25T07:59:13.195Z,103034.00
2018-09-25T08:01:47.787Z,103033.00
2018-09-25T08:04:22.394Z,103039.00
2018-09-25T08:06:57.587Z,103038.00
2018-09-25T08:09:32.149Z,103052.00
2018-09-25T08:12:06.945Z,103052.00
2018-09-25T08:14:41.543Z,103053.00
2018-09-25T08:17:16.163Z,103058.00
2018-09-25T08:19:50.833Z,103051.00
2018-09-25T08:22:25.439Z,103057.00
2018-09-25T08:24:59.914Z,103062.00
2018-09-25T08:27:34.347Z,103061.00
2018-09-25T08:30:08.888Z,103075.00
2018-09-25T08:32:43.822Z,103071.00
2018-09-25T08:35:18.415Z,103080.00
2018-09-25T08:37:53.101Z,103072.00
2018-09-25T08:40:27.585Z,103072.00
2018-09-25T08:43:02.143Z,103073.00
2018-09-25T08:45:36.725Z,103075.00
2018-09-25T08:48:11.197Z,103080.00
2018-09-25T08:50:46.351Z,103081.00
2018-09-25T08:53:20.868Z,103085.00
2018-09-25T08:55:55.243Z,103079.00
2018-09-25T08:58:29.690Z,103089.00
2018-09-25T09:01:04.244Z,103089.00
2018-09-25T09:03:38.617Z,103091.00
2018-09-25T09:06:13.571Z,103087.00
2018-09-25T09:08:48.155Z,103090.00
2018-09-25T09:11:22.601Z,103089.00
2018-09-25T09:13:57.208Z,103079.00
2018-09-25T09:16:31.756Z,103081.00
2018-09-25T09:19:06.387Z,103084.00
2018-09-25T09:21:40.945Z,103076.00
2018-09-25T09:24:15.515Z,103080.00
2018-09-25T09:26:49.895Z,103074.00
2018-09-25T09:29:24.456Z,103086.00
2018-09-25T09:31:58.974Z,103081.00
2018-09-25T09:34:33.399Z,103085.00
2018-09-25T09:37:07.924Z,103086.00
2018-09-25T09:39:42.402Z,103078.00
2018-09-25T09:42:16.841Z,103075.00
2018-09-25T09:44:51.287Z,103079.00
2018-09-25T09:47:25.783Z,103085.00
2018-09-25T09:50:00.290Z,103085.00
2018-09-25T09:52:34.791Z,103084.00
2018-09-25T09:55:09.367Z,103085.00
2018-09-25T09:57:43.891Z,103086.00
2018-09-25T10:00:18.343Z,103083.00
2018-09-25T10:02:52.898Z,103079.00
2018-09-25T10:05:27.397Z,103085.00
2018-09-25T10:08:02.054Z,103085.00
2018-09-25T10:10:36.552Z,103082.00
2018-09-25T10:13:11.000Z,103092.00
2018-09-25T10:15:45.419Z,103092.00
2018-09-25T10:18:19.880Z,103095.00
2018-09-25T10:20:54.460Z,103085.00
2018-09-25T10:23:28.962Z,103091.00
2018-09-25T10:26:03.339Z,103088.00
2018-09-25T10:28:37.930Z,103093.00
2018-09-25T10:31:12.383Z,103090.00
2018-09-25T10:33:46.825Z,103095.00
2018-09-25T10:36:21.235Z,103092.00
2018-09-25T10:38:55.783Z,103088.00
2018-09-25T10:41:30.350Z,103096.00
2018-09-25T10:44:04.947Z,103089.00
2018-09-25T10:46:39.532Z,103087.00
2018-09-25T10:49:14.595Z,103083.00
2018-09-25T10:51:49.457Z,103084.00
2018-09-25T10:54:24.088Z,103084.00
2018-09-25T10:56:58.793Z,103093.00
2018-09-25T10:59:33.205Z,103090.00
2018-09-25T11:02:07.791Z,103102.00
2018-09-25T11:04:42.433Z,103095.00
2018-09-25T11:07:17.688Z,103099.00
2018-09-25T11:09:52.486Z,103099.00
2018-09-25T11:12:27.144Z,103096.00
2018-09-25T11:15:01.663Z,103095.00
2018-09-25T11:17:36.290Z,103093.00
2018-09-25T11:20:10.988Z,103102.00
2018-09-25T11:22:45.489Z,103098.00
2018-09-25T11:25:19.919Z,103100.00
2018-09-25T11:27:54.451Z,103089.00
2018-09-25T11:30:29.096Z,103093.00
2018-09-25T11:33:03.563Z,103101.00
2018-09-25T11:35:37.952Z,103093.00
2018-09-25T11:38:12.598Z,103084.00
2018-09-25T11:40:46.951Z,103079.00
2018-09-25T11:43:21.746Z,103077.00
2018-09-25T11:45:56.219Z,103071.00
2018-09-25T11:48:30.784Z,103080.00
2018-09-25T11:51:05.394Z,103074.00
2018-09-25T11:53:40.147Z,103060.00
2018-09-25T11:56:14.701Z,103070.00
2018-09-25T11:58:49.159Z,103080.00
2018-09-25T12:01:23.590Z,103067.00
2018-09-25T12:03:58.143Z,103073.00
2018-09-25T12:06:32.583Z,103068.00
2018-09-25T12:09:07.128Z,103080.00
2018-09-25T12:11:41.675Z,103077.00
2018-09-25T12:14:16.140Z,103070.00
2018-09-25T12:16:50.813Z,103061.00
2018-09-25T12:19:25.271Z,103059.00
2018-09-25T12:21:59.831Z,103056.00
2018-09-25T12:24:34.849Z,103056.00
2018-09-25T12:27:09.369Z,103051.00
2018-09-25T12:29:43.802Z,103040.00
2018-09-25T12:32:18.467Z,103035.00
2018-09-25T12:34:53.015Z,103040.00
2018-09-25T12:37:27.443Z,103027.00
2018-09-25T12:40:01.939Z,103031.00
2018-09-25T12:42:36.350Z,103033.00
2018-09-25T12:45:10.920Z,103029.00
2018-09-25T12:47:45.381Z,103012.00
2018-09-25T12:50:19.761Z,103012.00
2018-09-25T12:52:54.472Z,103008.00
2018-09-25T12:55:29.075Z,103009.00
2018-09-25T12:58:03.623Z,102998.00
2018-09-25T13:00:38.095Z,103006.00
2018-09-25T13:03:12.534Z,103008.00
2018-09-25T13:05:48.060Z,103000.00
2018-09-25T13:08:22.642Z,103001.00
2018-09-25T13:10:57.567Z,103007.00
2018-09-25T13:13:32.327Z,103004.00
2018-09-25T13:16:07.184Z,103008.00
2018-09-25T13:18:42.019Z,103011.00
2018-09-25T13:21:16.588Z,103000.00
2018-09-25T13:23:52.270Z,103003.00
2018-09-25T13:26:27.963Z,103003.00
2018-09-25T13:29:02.539Z,103006.00
2018-09-25T13:31:37.136Z,103008.00
2018-09-25T13:34:11.990Z,103001.00
2018-09-25T13:36:48.794Z,103000.00
2018-09-25T13:39:23.168Z,103004.00
2018-09-25T13:41:57.680Z,103000.00
2018-09-25T13:44:32.196Z,102997.00
2018-09-25T13:47:06.625Z,102998.00
2018-09-25T13:49:41.142Z,102998.00
2018-09-25T13:52:15.559Z,102995.00
2018-09-25T13:54:50.206Z,102986.00
2018-09-25T13:57:25.109Z,102984.00
2018-09-25T13:59:59.639Z,102993.00
2018-09-25T14:02:35.378Z,102979.00
2018-09-25T14:05:10.107Z,102981.00
2018-09-25T14:07:44.662Z,102967.00
2018-09-25T14:10:19.154Z,102968.00
2018-09-25T14:12:53.717Z,102972.00
2018-09-25T14:15:28.423Z,102965.00
2018-09-25T14:18:03.019Z,102950.00
2018-09-25T14:20:37.639Z,102955.00
2018-09-25T14:23:12.092Z,102954.00
2018-09-25T14:25:46.685Z,102943.00
2018-09-25T14:28:21.076Z,102943.00
2018-09-25T14:30:55.614Z,102945.00
2018-09-25T14:33:30.407Z,102941.00
2018-09-25T14:36:05.115Z,102930.00
2018-09-25T14:38:39.491Z,102942.00
2018-09-25T14:41:13.940Z,102937.00
2018-09-25T14:43:48.427Z,102935.00
2018-09-25T14:46:24.027Z,102935.00
2018-09-25T14:48:58.595Z,102933.00
2018-09-25T14:51:33.283Z,102925.00
2018-09-25T14:54:07.683Z,102930.00
2018-09-25T14:56:42.319Z,102925.00
2018-09-25T14:59:17.079Z,102927.00
2018-09-25T15:01:51.620Z,102916.00
2018-09-25T15:04:26.079Z,102928.00
2018-09-25T15:07:00.655Z,102914.00
2018-09-25T15:09:35.292Z,102924.00
2018-09-25T15:12:09.882Z,102928.00
2018-09-25T15:14:44.552Z,102919.00
2018-09-25T15:17:19.068Z,102930.00
2018-09-25T15:19:53.534Z,102922.00
2018-09-25T15:22:27.874Z,102921.00
2018-09-25T15:25:02.491Z,102917.00
2018-09-25T15:27:36.994Z,102931.00
2018-09-25T15:30:11.398Z,102922.00
2018-09-25T15:32:45.924Z,102921.00
2018-09-25T15:35:20.520Z,102932.00
2018-09-25T15:37:54.734Z,102930.00
2018-09-25T15:40:29.395Z,102928.00
2018-09-25T15:43:03.860Z,102937.00
2018-09-25T15:45:38.419Z,102932.00
2018-09-25T15:48:12.829Z,102933.00
2018-09-25T15:50:47.378Z,102938.00
2018-09-25T15:53:21.831Z,102929.00
2018-09-25T15:55:56.315Z,102926.00
2018-09-25T15:58:30.955Z,102917.00
2018-09-25T16:01:05.514Z,102926.00
2018-09-25T16:03:41.006Z,102933.00
2018-09-25T16:06:16.587Z,102931.00
2018-09-25T16:08:51.200Z,102920.00
2018-09-25T16:11:25.710Z,102925.00
2018-09-25T16:14:00.315Z,102931.00
2018-09-25T16:16:35.816Z,102934.00
2018-09-25T16:19:10.316Z,102936.00
2018-09-25T16:21:44.853Z,102933.00
2018-09-25T16:24:19.452Z,102928.00
2018-09-25T16:26:54.538Z,102934.00
2018-09-25T16:29:28.889Z,102930.00
2018-09-25T16:32:03.323Z,102928.00
2018-09-25T16:34:37.780Z,102934.00
2018-09-25T16:37:12.570Z,102930.00
2018-09-25T16:39:48.004Z,102927.00
2018-09-25T16:42:22.910Z,102944.00
2018-09-25T16:44:57.399Z,102941.00
2018-09-25T16:47:32.127Z,102943.00
2018-09-25T16:50:06.508Z,102951.00
2018-09-25T16:52:41.887Z,102954.00
2018-09-25T16:55:17.402Z,102951.00
2018-09-25T16:57:51.925Z,102950.00
2018-09-25T17:00:26.495Z,102947.00
2018-09-25T17:03:00.965Z,102949.00
2018-09-25T17:05:35.436Z,102949.00
2018-09-25T17:08:10.083Z,102956.00
2018-09-25T17:10:44.651Z,102960.00
2018-09-25T17:13:19.189Z,102966.00
2018-09-25T17:15:56.204Z,102966.00
2018-09-25T17:18:30.663Z,102959.00
2018-09-25T17:21:05.073Z,102957.00
2018-09-25T17:23:39.684Z,102949.00
2018-09-25T17:26:14.170Z,102954.00
2018-09-25T17:28:48.723Z,102945.00
2018-09-25T17:31:24.268Z,102949.00
2018-09-25T17:33:59.426Z,102954.00
2018-09-25T17:36:34.142Z,102947.00
2018-09-25T17:39:08.641Z,102935.00
2018-09-25T17:41:43.324Z,102933.00
2018-09-25T17:44:17.895Z,102938.00
2018-09-25T17:46:53.479Z,102935.00
2018-09-25T17:49:27.798Z,102935.00
2018-09-25T17:52:02.407Z,102925.00
2018-09-25T17:54:36.988Z,102926.00
2018-09-25T17:57:11.546Z,102927.00
2018-09-25T17:59:46.012Z,102935.00
2018-09-25T18:02:27.133Z,102930.00
2018-09-25T18:05:01.536Z,102923.00
2018-09-25T18:07:36.018Z,102927.00
2018-09-25T18:10:10.707Z,102923.00
2018-09-25T18:12:46.252Z,102922.00
2018-09-25T18:15:20.849Z,102912.00
2018-09-25T18:17:56.030Z,102914.00
2018-09-25T18:20:30.593Z,102913.00
2018-09-25T18:23:04.906Z,102911.00
2018-09-25T18:25:39.578Z,102917.00
2018-09-25T18:28:14.057Z,102922.00
2018-09-25T18:30:48.751Z,102930.00
2018-09-25T18:33:23.193Z,102935.00
2018-09-25T18:35:57.774Z,102949.00
2018-09-25T18:38:32.672Z,102943.00
2018-09-25T18:41:07.076Z,102947.00
2018-09-25T18:43:41.563Z,102940.00
2018-09-25T18:46:16.093Z,102949.00
2018-09-25T18:48:50.958Z,102953.00
2018-09-25T18:51:25.435Z,102957.00
2018-09-25T18:54:00.003Z,102954.00
2018-09-25T18:56:34.683Z,102952.00
2018-09-25T18:59:09.551Z,102958.00
2018-09-25T19:01:44.088Z,102968.00
2018-09-25T19:04:18.532Z,102962.00
2018-09-25T19:06:53.157Z,102960.00
2018-09-25T19:09:27.730Z,102955.00
2018-09-25T19:12:02.591Z,102951.00
2018-09-25T19:14:37.064Z,102956.00
2018-09-25T19:17:11.499Z,102938.00
2018-09-25T19:19:46.045Z,102930.00
2018-09-25T19:22:20.478Z,102932.00
2018-09-25T19:24:54.975Z,102938.00
2018-09-25T19:27:29.458Z,102934.00
2018-09-25T19:30:05.102Z,102941.00
2018-09-25T19:32:39.619Z,102947.00
2018-09-25T19:35:14.194Z,102953.00
2018-09-25T19:37:48.672Z,102940.00
2018-09-25T19:40:23.800Z,102948.00
2018-09-25T19:42:58.339Z,102925.00
2018-09-25T19:45:34.904Z,102932.00
2018-09-25T19:48:09.356Z,102933.00
2018-09-25T19:50:44.083Z,102922.00
2018-09-25T19:53:18.575Z,102916.00
2018-09-25T19:55:53.063Z,102926.00
2018-09-25T19:58:28.105Z,102918.00
2018-09-25T20:01:02.754Z,102922.00
2018-09-25T20:03:37.402Z,102909.00
2018-09-25T20:06:11.863Z,102905.00
2018-09-25T20:08:46.353Z,102909.00
2018-09-25T20:11:20.843Z,102907.00
2018-09-25T20:13:55.381Z,102903.00
2018-09-25T20:16:30.190Z,102909.00
2018-09-25T20:19:04.803Z,102905.00
2018-09-25T20:21:39.275Z,102907.00
2018-09-25T20:24:13.751Z,102905.00
2018-09-25T20:26:48.236Z,102914.00
2018-09-25T20:29:22.704Z,102904.00
2018-09-25T20:31:57.264Z,102903.00
2018-09-25T20:34:31.871Z,102904.00
2018-09-25T20:37:06.633Z,102902.00
2018-09-25T20:39:41.244Z,102899.00
2018-09-25T20:42:15.983Z,102884.00
2018-09-25T20:44:50.442Z,102896.00
2018-09-25T20:47:24.886Z,102890.00
2018-09-25T20:49:59.679Z,102896.00
2018-09-25T20:52:34.316Z,102901.00
2018-09-25T20:55:08.810Z,102905.00
2018-09-25T20:57:43.430Z,102907.00
2018-09-25T21:00:18.124Z,102911.00
2018-09-25T21:02:52.779Z,102907.00
2018-09-25T21:05:27.351Z,102889.00
2018-09-25T21:08:01.876Z,102899.00
2018-09-25T21:10:36.602Z,102904.00
2018-09-25T21:13:11.127Z,102903.00
2018-09-25T21:15:45.746Z,102890.00
2018-09-25T21:18:20.197Z,102885.00
2018-09-25T21:20:54.683Z,102881.00
2018-09-25T21:23:29.222Z,102860.00
2018-09-25T21:26:03.771Z,102854.00
2018-09-25T21:28:38.185Z,102853.00
2018-09-25T21:31:13.738Z,102859.00
2018-09-25T21:33:48.328Z,102855.00
2018-09-25T21:36:22.742Z,102859.00
2018-09-25T21:38:57.351Z,102858.00
2018-09-25T21:41:32.043Z,102859.00
2018-09-25T21:44:06.696Z,102861.00
2018-09-25T21:46:41.368Z,102867.00
2018-09-25T21:49:15.889Z,102865.00
2018-09-25T21:51:50.685Z,102855.00
2018-09-25T21:54:25.374Z,102848.00
2018-09-25T21:57:00.031Z,102838.00
2018-09-25T21:59:34.603Z,102841.00
2018-09-25T22:02:09.108Z,102844.00
2018-09-25T22:04:43.737Z,102840.00
2018-09-25T22:07:18.155Z,102844.00
2018-09-25T22:09:52.774Z,102842.00
2018-09-25T22:12:31.162Z,102826.00
2018-09-25T22:15:06.730Z,102826.00
2018-09-25T22:17:41.422Z,102824.00
2018-09-25T22:20:16.411Z,102830.00
2018-09-25T22:22:50.818Z,102836.00
2018-09-25T22:25:25.531Z,102837.00
2018-09-25T22:27:59.963Z,102840.00
2018-09-25T22:30:34.586Z,102836.00
2018-09-25T22:33:09.159Z,102840.00
2018-09-25T22:35:43.589Z,102841.00
2018-09-25T22:38:18.220Z,102816.00
2018-09-25T22:40:52.632Z,102820.00
2018-09-25T22:43:27.544Z,102820.00
2018-09-25T22:46:03.489Z,102827.00
2018-09-25T22:48:38.053Z,102831.00
2018-09-25T22:51:12.403Z,102833.00
2018-09-25T22:53:46.871Z,102826.00
2018-09-25T22:56:21.486Z,102827.00
2018-09-25T22:58:55.999Z,102835.00
2018-09-25T23:01:30.857Z,102841.00
2018-09-25T23:04:05.875Z,102829.00
2018-09-25T23:06:40.197Z,102828.00
2018-09-25T23:09:15.339Z,102831.00
2018-09-25T23:11:49.847Z,102825.00
2018-09-25T23:14:24.258Z,102822.00
2018-09-25T23:16:58.883Z,102809.00
2018-09-25T23:19:33.395Z,102810.00
2018-09-25T23:22:07.801Z,102809.00
2018-09-25T23:24:42.272Z,102808.00
2018-09-25T23:27:16.728Z,102810.00
2018-09-25T23:29:51.220Z,102798.00
2018-09-25T23:32:25.652Z,102793.00
2018-09-25T23:34:59.970Z,102794.00
2018-09-25T23:37:34.712Z,102783.00
2018-09-25T23:40:09.283Z,102787.00
2018-09-25T23:42:43.766Z,102786.00
2018-09-25T23:45:21.113Z,102775.00
2018-09-25T23:48:57.694Z,102778.00
2018-09-25T23:53:39.781Z,102777.00
2018-09-25T23:56:20.346Z,102770.00
2018-09-25T23:58:55.570Z,102768.00
